sensor_id;sensor_type;location;lat;lon;timestamp;P1;durP1;ratioP1;P2;durP2;ratioP2
66012;SDS011;52783;50.502;8.190;2023-08-30T00:01:49;9.70;;;4.63;;
66012;SDS011;52783;50.502;8.190;2023-08-30T00:04:14;6.85;;;3.97;;
66012;SDS011;52783;50.502;8.190;2023-08-30T00:06:39;6.80;;;4.15;;
66012;SDS011;52783;50.502;8.190;2023-08-30T00:09:05;12.35;;;4.40;;
66012;SDS011;52783;50.502;8.190;2023-08-30T00:11:31;7.95;;;4.55;;
66012;SDS011;52783;50.502;8.190;2023-08-30T00:14:04;5.35;;;4.30;;
66012;SDS011;52783;50.502;8.190;2023-08-30T00:16:31;7.13;;;4.80;;
66012;SDS011;52783;50.502;8.190;2023-08-30T00:19:00;9.55;;;4.43;;
66012;SDS011;52783;50.502;8.190;2023-08-30T00:21:26;5.20;;;4.53;;
66012;SDS011;52783;50.502;8.190;2023-08-30T00:23:52;8.80;;;5.28;;
66012;SDS011;52783;50.502;8.190;2023-08-30T00:26:18;11.70;;;5.32;;
66012;SDS011;52783;50.502;8.190;2023-08-30T00:28:43;7.65;;;5.82;;
66012;SDS011;52783;50.502;8.190;2023-08-30T00:31:09;8.70;;;5.50;;
66012;SDS011;52783;50.502;8.190;2023-08-30T00:33:34;7.72;;;5.55;;
66012;SDS011;52783;50.502;8.190;2023-08-30T00:36:00;8.52;;;5.38;;
66012;SDS011;52783;50.502;8.190;2023-08-30T00:38:26;7.53;;;5.00;;
66012;SDS011;52783;50.502;8.190;2023-08-30T00:40:52;8.45;;;5.25;;
66012;SDS011;52783;50.502;8.190;2023-08-30T00:43:19;8.93;;;4.70;;
66012;SDS011;52783;50.502;8.190;2023-08-30T00:45:45;7.35;;;4.57;;
66012;SDS011;52783;50.502;8.190;2023-08-30T00:48:12;7.32;;;4.68;;
66012;SDS011;52783;50.502;8.190;2023-08-30T00:50:38;6.05;;;4.50;;
66012;SDS011;52783;50.502;8.190;2023-08-30T00:53:04;8.27;;;4.30;;
66012;SDS011;52783;50.502;8.190;2023-08-30T00:55:32;5.03;;;3.85;;
66012;SDS011;52783;50.502;8.190;2023-08-30T00:57:59;4.93;;;3.90;;
66012;SDS011;52783;50.502;8.190;2023-08-30T01:00:25;4.32;;;3.92;;
66012;SDS011;52783;50.502;8.190;2023-08-30T01:02:52;8.57;;;3.60;;
66012;SDS011;52783;50.502;8.190;2023-08-30T01:05:18;13.23;;;4.10;;
66012;SDS011;52783;50.502;8.190;2023-08-30T01:07:44;6.78;;;3.55;;
66012;SDS011;52783;50.502;8.190;2023-08-30T01:10:09;5.95;;;3.53;;
66012;SDS011;52783;50.502;8.190;2023-08-30T01:12:49;7.82;;;3.85;;
66012;SDS011;52783;50.502;8.190;2023-08-30T01:15:24;7.15;;;3.75;;
66012;SDS011;52783;50.502;8.190;2023-08-30T01:17:51;5.50;;;4.05;;
66012;SDS011;52783;50.502;8.190;2023-08-30T01:20:18;10.55;;;3.78;;
66012;SDS011;52783;50.502;8.190;2023-08-30T01:22:55;9.05;;;4.30;;
66012;SDS011;52783;50.502;8.190;2023-08-30T01:25:43;4.35;;;3.88;;
66012;SDS011;52783;50.502;8.190;2023-08-30T01:28:22;10.57;;;4.18;;
66012;SDS011;52783;50.502;8.190;2023-08-30T01:30:51;6.70;;;4.00;;
66012;SDS011;52783;50.502;8.190;2023-08-30T01:33:19;12.05;;;3.90;;
66012;SDS011;52783;50.502;8.190;2023-08-30T01:35:46;7.40;;;4.63;;
66012;SDS011;52783;50.502;8.190;2023-08-30T01:38:12;7.63;;;4.40;;
66012;SDS011;52783;50.502;8.190;2023-08-30T01:40:40;10.30;;;4.68;;
66012;SDS011;52783;50.502;8.190;2023-08-30T01:43:07;7.38;;;4.97;;
66012;SDS011;52783;50.502;8.190;2023-08-30T01:45:40;11.07;;;6.20;;
66012;SDS011;52783;50.502;8.190;2023-08-30T01:48:12;6.28;;;4.43;;
66012;SDS011;52783;50.502;8.190;2023-08-30T01:50:39;10.88;;;4.68;;
66012;SDS011;52783;50.502;8.190;2023-08-30T01:53:07;8.68;;;4.95;;
66012;SDS011;52783;50.502;8.190;2023-08-30T01:55:33;10.40;;;4.88;;
66012;SDS011;52783;50.502;8.190;2023-08-30T01:58:00;13.55;;;5.20;;
66012;SDS011;52783;50.502;8.190;2023-08-30T02:00:26;6.68;;;5.15;;
66012;SDS011;52783;50.502;8.190;2023-08-30T02:02:51;7.47;;;4.65;;
66012;SDS011;52783;50.502;8.190;2023-08-30T02:05:17;16.30;;;5.75;;
66012;SDS011;52783;50.502;8.190;2023-08-30T02:07:43;15.57;;;5.50;;
66012;SDS011;52783;50.502;8.190;2023-08-30T02:10:28;7.47;;;5.20;;
66012;SDS011;52783;50.502;8.190;2023-08-30T02:12:58;8.07;;;5.30;;
66012;SDS011;52783;50.502;8.190;2023-08-30T02:15:25;7.50;;;5.72;;
66012;SDS011;52783;50.502;8.190;2023-08-30T02:17:52;7.10;;;5.35;;
66012;SDS011;52783;50.502;8.190;2023-08-30T02:20:19;9.60;;;6.13;;
66012;SDS011;52783;50.502;8.190;2023-08-30T02:22:45;12.50;;;6.30;;
66012;SDS011;52783;50.502;8.190;2023-08-30T02:25:10;16.13;;;6.90;;
66012;SDS011;52783;50.502;8.190;2023-08-30T02:27:36;12.70;;;8.18;;
66012;SDS011;52783;50.502;8.190;2023-08-30T02:30:02;13.02;;;8.07;;
66012;SDS011;52783;50.502;8.190;2023-08-30T02:32:28;10.73;;;7.90;;
66012;SDS011;52783;50.502;8.190;2023-08-30T02:34:53;14.77;;;8.43;;
66012;SDS011;52783;50.502;8.190;2023-08-30T02:37:21;10.52;;;7.57;;
66012;SDS011;52783;50.502;8.190;2023-08-30T02:39:46;14.57;;;8.15;;
66012;SDS011;52783;50.502;8.190;2023-08-30T02:42:12;10.80;;;8.00;;
66012;SDS011;52783;50.502;8.190;2023-08-30T02:44:37;12.57;;;8.13;;
66012;SDS011;52783;50.502;8.190;2023-08-30T02:47:03;14.63;;;8.30;;
66012;SDS011;52783;50.502;8.190;2023-08-30T02:49:28;14.70;;;8.45;;
66012;SDS011;52783;50.502;8.190;2023-08-30T02:51:54;11.15;;;8.25;;
66012;SDS011;52783;50.502;8.190;2023-08-30T02:54:20;12.60;;;8.88;;
66012;SDS011;52783;50.502;8.190;2023-08-30T02:56:47;14.60;;;8.23;;
66012;SDS011;52783;50.502;8.190;2023-08-30T02:59:13;10.38;;;8.02;;
66012;SDS011;52783;50.502;8.190;2023-08-30T03:01:39;16.25;;;8.90;;
66012;SDS011;52783;50.502;8.190;2023-08-30T03:04:04;14.00;;;8.95;;
66012;SDS011;52783;50.502;8.190;2023-08-30T03:06:32;17.42;;;8.70;;
66012;SDS011;52783;50.502;8.190;2023-08-30T03:08:58;12.95;;;8.55;;
66012;SDS011;52783;50.502;8.190;2023-08-30T03:11:24;10.50;;;8.30;;
66012;SDS011;52783;50.502;8.190;2023-08-30T03:13:50;16.50;;;8.93;;
66012;SDS011;52783;50.502;8.190;2023-08-30T03:16:15;16.05;;;9.18;;
66012;SDS011;52783;50.502;8.190;2023-08-30T03:18:42;13.82;;;8.95;;
66012;SDS011;52783;50.502;8.190;2023-08-30T03:21:08;12.13;;;8.85;;
66012;SDS011;52783;50.502;8.190;2023-08-30T03:23:34;13.40;;;8.85;;
66012;SDS011;52783;50.502;8.190;2023-08-30T03:26:13;14.27;;;7.88;;
66012;SDS011;52783;50.502;8.190;2023-08-30T03:28:41;11.27;;;7.72;;
66012;SDS011;52783;50.502;8.190;2023-08-30T03:33:40;12.07;;;7.80;;
66012;SDS011;52783;50.502;8.190;2023-08-30T03:36:10;17.63;;;8.93;;
66012;SDS011;52783;50.502;8.190;2023-08-30T03:38:36;13.35;;;6.97;;
66012;SDS011;52783;50.502;8.190;2023-08-30T03:41:02;10.75;;;7.30;;
66012;SDS011;52783;50.502;8.190;2023-08-30T03:43:29;11.35;;;6.63;;
66012;SDS011;52783;50.502;8.190;2023-08-30T03:45:58;8.52;;;6.40;;
66012;SDS011;52783;50.502;8.190;2023-08-30T03:48:25;10.40;;;7.00;;
66012;SDS011;52783;50.502;8.190;2023-08-30T03:50:51;10.77;;;6.97;;
66012;SDS011;52783;50.502;8.190;2023-08-30T03:53:17;12.57;;;6.47;;
66012;SDS011;52783;50.502;8.190;2023-08-30T03:55:42;9.43;;;6.82;;
66012;SDS011;52783;50.502;8.190;2023-08-30T03:58:08;14.70;;;6.90;;
66012;SDS011;52783;50.502;8.190;2023-08-30T04:00:37;10.57;;;6.47;;
66012;SDS011;52783;50.502;8.190;2023-08-30T04:03:04;9.27;;;5.75;;
66012;SDS011;52783;50.502;8.190;2023-08-30T04:05:34;9.95;;;6.47;;
66012;SDS011;52783;50.502;8.190;2023-08-30T04:08:03;11.63;;;6.28;;
66012;SDS011;52783;50.502;8.190;2023-08-30T04:10:33;13.77;;;6.38;;
66012;SDS011;52783;50.502;8.190;2023-08-30T04:13:03;10.55;;;5.63;;
66012;SDS011;52783;50.502;8.190;2023-08-30T04:15:32;11.00;;;6.38;;
66012;SDS011;52783;50.502;8.190;2023-08-30T04:18:01;11.35;;;7.22;;
66012;SDS011;52783;50.502;8.190;2023-08-30T04:20:27;12.20;;;6.90;;
66012;SDS011;52783;50.502;8.190;2023-08-30T04:22:53;12.95;;;6.90;;
66012;SDS011;52783;50.502;8.190;2023-08-30T04:25:20;10.48;;;7.18;;
66012;SDS011;52783;50.502;8.190;2023-08-30T04:27:45;13.52;;;7.40;;
66012;SDS011;52783;50.502;8.190;2023-08-30T04:30:11;13.07;;;7.53;;
66012;SDS011;52783;50.502;8.190;2023-08-30T04:32:37;14.27;;;7.43;;
66012;SDS011;52783;50.502;8.190;2023-08-30T04:35:02;9.02;;;6.95;;
66012;SDS011;52783;50.502;8.190;2023-08-30T04:37:31;10.50;;;7.05;;
66012;SDS011;52783;50.502;8.190;2023-08-30T04:39:57;13.63;;;7.57;;
66012;SDS011;52783;50.502;8.190;2023-08-30T04:42:23;14.27;;;8.00;;
66012;SDS011;52783;50.502;8.190;2023-08-30T04:44:48;15.27;;;8.48;;
66012;SDS011;52783;50.502;8.190;2023-08-30T04:47:14;17.40;;;8.05;;
66012;SDS011;52783;50.502;8.190;2023-08-30T04:49:39;13.38;;;8.10;;
66012;SDS011;52783;50.502;8.190;2023-08-30T04:52:05;16.15;;;8.10;;
66012;SDS011;52783;50.502;8.190;2023-08-30T04:54:31;17.05;;;8.63;;
66012;SDS011;52783;50.502;8.190;2023-08-30T04:56:56;18.85;;;9.00;;
66012;SDS011;52783;50.502;8.190;2023-08-30T04:59:22;13.38;;;9.05;;
66012;SDS011;52783;50.502;8.190;2023-08-30T05:01:47;16.23;;;8.73;;
66012;SDS011;52783;50.502;8.190;2023-08-30T05:04:13;13.52;;;9.07;;
66012;SDS011;52783;50.502;8.190;2023-08-30T05:06:39;19.10;;;9.60;;
66012;SDS011;52783;50.502;8.190;2023-08-30T05:09:04;18.15;;;9.82;;
66012;SDS011;52783;50.502;8.190;2023-08-30T05:11:30;20.63;;;9.52;;
66012;SDS011;52783;50.502;8.190;2023-08-30T05:13:55;16.23;;;10.45;;
66012;SDS011;52783;50.502;8.190;2023-08-30T05:16:21;20.25;;;9.93;;
66012;SDS011;52783;50.502;8.190;2023-08-30T05:18:46;23.92;;;10.93;;
66012;SDS011;52783;50.502;8.190;2023-08-30T05:21:13;16.00;;;10.35;;
66012;SDS011;52783;50.502;8.190;2023-08-30T05:23:39;19.98;;;11.77;;
66012;SDS011;52783;50.502;8.190;2023-08-30T05:26:07;16.85;;;11.57;;
66012;SDS011;52783;50.502;8.190;2023-08-30T05:28:39;19.80;;;11.05;;
66012;SDS011;52783;50.502;8.190;2023-08-30T05:31:04;22.20;;;11.30;;
66012;SDS011;52783;50.502;8.190;2023-08-30T05:33:31;21.58;;;12.95;;
66012;SDS011;52783;50.502;8.190;2023-08-30T05:35:56;18.92;;;11.45;;
66012;SDS011;52783;50.502;8.190;2023-08-30T05:38:22;21.63;;;11.93;;
66012;SDS011;52783;50.502;8.190;2023-08-30T05:40:47;18.48;;;11.07;;
66012;SDS011;52783;50.502;8.190;2023-08-30T05:43:13;15.77;;;11.30;;
66012;SDS011;52783;50.502;8.190;2023-08-30T05:45:40;21.38;;;10.70;;
66012;SDS011;52783;50.502;8.190;2023-08-30T05:48:05;18.33;;;11.52;;
66012;SDS011;52783;50.502;8.190;2023-08-30T05:50:31;14.32;;;9.43;;
66012;SDS011;52783;50.502;8.190;2023-08-30T05:52:56;16.00;;;9.27;;
66012;SDS011;52783;50.502;8.190;2023-08-30T05:55:22;24.15;;;10.40;;
66012;SDS011;52783;50.502;8.190;2023-08-30T05:57:48;12.05;;;7.75;;
66012;SDS011;52783;50.502;8.190;2023-08-30T06:00:13;12.50;;;8.60;;
66012;SDS011;52783;50.502;8.190;2023-08-30T06:02:39;11.00;;;8.60;;
66012;SDS011;52783;50.502;8.190;2023-08-30T06:05:05;14.27;;;8.45;;
66012;SDS011;52783;50.502;8.190;2023-08-30T06:07:31;18.17;;;8.93;;
66012;SDS011;52783;50.502;8.190;2023-08-30T06:09:57;17.63;;;8.65;;
66012;SDS011;52783;50.502;8.190;2023-08-30T06:12:22;13.10;;;8.80;;
66012;SDS011;52783;50.502;8.190;2023-08-30T06:14:48;13.18;;;8.13;;
66012;SDS011;52783;50.502;8.190;2023-08-30T06:17:17;16.17;;;8.52;;
66012;SDS011;52783;50.502;8.190;2023-08-30T06:19:43;13.18;;;7.88;;
66012;SDS011;52783;50.502;8.190;2023-08-30T06:22:09;15.40;;;8.77;;
66012;SDS011;52783;50.502;8.190;2023-08-30T06:24:35;11.23;;;8.38;;
66012;SDS011;52783;50.502;8.190;2023-08-30T06:27:01;10.32;;;7.88;;
66012;SDS011;52783;50.502;8.190;2023-08-30T06:29:26;10.70;;;7.65;;
66012;SDS011;52783;50.502;8.190;2023-08-30T06:31:52;13.23;;;7.55;;
66012;SDS011;52783;50.502;8.190;2023-08-30T06:34:17;11.02;;;7.10;;
66012;SDS011;52783;50.502;8.190;2023-08-30T06:36:43;11.10;;;7.43;;
66012;SDS011;52783;50.502;8.190;2023-08-30T06:39:08;9.35;;;6.88;;
66012;SDS011;52783;50.502;8.190;2023-08-30T06:41:34;8.48;;;6.68;;
66012;SDS011;52783;50.502;8.190;2023-08-30T06:43:59;8.90;;;6.35;;
66012;SDS011;52783;50.502;8.190;2023-08-30T06:46:25;28.25;;;7.15;;
66012;SDS011;52783;50.502;8.190;2023-08-30T06:48:50;11.00;;;6.45;;
66012;SDS011;52783;50.502;8.190;2023-08-30T06:51:16;12.85;;;6.93;;
66012;SDS011;52783;50.502;8.190;2023-08-30T06:53:41;8.60;;;6.53;;
66012;SDS011;52783;50.502;8.190;2023-08-30T06:56:07;13.85;;;7.57;;
66012;SDS011;52783;50.502;8.190;2023-08-30T06:58:32;10.52;;;7.38;;
66012;SDS011;52783;50.502;8.190;2023-08-30T07:00:58;9.90;;;7.55;;
66012;SDS011;52783;50.502;8.190;2023-08-30T07:03:24;13.38;;;7.72;;
66012;SDS011;52783;50.502;8.190;2023-08-30T07:05:52;13.02;;;7.93;;
66012;SDS011;52783;50.502;8.190;2023-08-30T07:08:18;12.07;;;7.88;;
66012;SDS011;52783;50.502;8.190;2023-08-30T07:10:44;12.73;;;7.93;;
66012;SDS011;52783;50.502;8.190;2023-08-30T07:13:09;9.68;;;7.50;;
66012;SDS011;52783;50.502;8.190;2023-08-30T07:15:38;15.10;;;7.65;;
66012;SDS011;52783;50.502;8.190;2023-08-30T07:18:05;9.68;;;7.32;;
66012;SDS011;52783;50.502;8.190;2023-08-30T07:20:31;10.23;;;7.75;;
66012;SDS011;52783;50.502;8.190;2023-08-30T07:22:57;14.00;;;8.55;;
66012;SDS011;52783;50.502;8.190;2023-08-30T07:25:22;13.20;;;8.75;;
66012;SDS011;52783;50.502;8.190;2023-08-30T07:27:49;20.38;;;10.10;;
66012;SDS011;52783;50.502;8.190;2023-08-30T07:30:14;16.15;;;9.52;;
66012;SDS011;52783;50.502;8.190;2023-08-30T07:32:40;14.15;;;9.77;;
66012;SDS011;52783;50.502;8.190;2023-08-30T07:35:06;16.35;;;9.18;;
66012;SDS011;52783;50.502;8.190;2023-08-30T07:37:32;12.55;;;8.98;;
66012;SDS011;52783;50.502;8.190;2023-08-30T07:39:57;14.90;;;9.02;;
66012;SDS011;52783;50.502;8.190;2023-08-30T07:42:23;14.80;;;9.70;;
66012;SDS011;52783;50.502;8.190;2023-08-30T07:44:48;14.55;;;9.30;;
66012;SDS011;52783;50.502;8.190;2023-08-30T07:47:14;11.02;;;8.88;;
66012;SDS011;52783;50.502;8.190;2023-08-30T07:49:40;14.35;;;9.50;;
66012;SDS011;52783;50.502;8.190;2023-08-30T07:52:06;13.63;;;9.05;;
66012;SDS011;52783;50.502;8.190;2023-08-30T07:54:33;13.13;;;8.32;;
66012;SDS011;52783;50.502;8.190;2023-08-30T07:56:58;19.58;;;9.85;;
66012;SDS011;52783;50.502;8.190;2023-08-30T07:59:24;13.95;;;8.88;;
66012;SDS011;52783;50.502;8.190;2023-08-30T08:01:49;10.32;;;8.32;;
66012;SDS011;52783;50.502;8.190;2023-08-30T08:04:16;18.48;;;8.93;;
66012;SDS011;52783;50.502;8.190;2023-08-30T08:06:42;11.52;;;7.88;;
66012;SDS011;52783;50.502;8.190;2023-08-30T08:09:07;9.63;;;6.78;;
66012;SDS011;52783;50.502;8.190;2023-08-30T08:11:33;13.35;;;7.28;;
66012;SDS011;52783;50.502;8.190;2023-08-30T08:13:58;9.75;;;7.40;;
66012;SDS011;52783;50.502;8.190;2023-08-30T08:16:24;18.17;;;7.32;;
66012;SDS011;52783;50.502;8.190;2023-08-30T08:18:49;12.35;;;7.05;;
66012;SDS011;52783;50.502;8.190;2023-08-30T08:21:17;10.45;;;6.45;;
66012;SDS011;52783;50.502;8.190;2023-08-30T08:23:42;11.00;;;5.93;;
66012;SDS011;52783;50.502;8.190;2023-08-30T08:26:08;6.93;;;5.82;;
66012;SDS011;52783;50.502;8.190;2023-08-30T08:28:33;6.78;;;5.32;;
66012;SDS011;52783;50.502;8.190;2023-08-30T08:30:59;9.02;;;5.90;;
66012;SDS011;52783;50.502;8.190;2023-08-30T08:33:25;9.85;;;5.50;;
66012;SDS011;52783;50.502;8.190;2023-08-30T08:35:51;6.88;;;4.90;;
66012;SDS011;52783;50.502;8.190;2023-08-30T08:38:17;6.57;;;5.03;;
66012;SDS011;52783;50.502;8.190;2023-08-30T08:40:42;5.97;;;4.78;;
66012;SDS011;52783;50.502;8.190;2023-08-30T08:43:11;10.10;;;5.35;;
66012;SDS011;52783;50.502;8.190;2023-08-30T08:45:40;4.95;;;4.43;;
66012;SDS011;52783;50.502;8.190;2023-08-30T08:48:06;10.18;;;5.45;;
66012;SDS011;52783;50.502;8.190;2023-08-30T08:50:32;10.32;;;5.20;;
66012;SDS011;52783;50.502;8.190;2023-08-30T08:52:59;10.40;;;5.40;;
66012;SDS011;52783;50.502;8.190;2023-08-30T08:55:26;8.50;;;4.97;;
66012;SDS011;52783;50.502;8.190;2023-08-30T08:57:54;5.97;;;4.68;;
66012;SDS011;52783;50.502;8.190;2023-08-30T09:00:22;7.35;;;4.53;;
66012;SDS011;52783;50.502;8.190;2023-08-30T09:02:48;8.15;;;4.65;;
66012;SDS011;52783;50.502;8.190;2023-08-30T09:05:16;6.57;;;4.57;;
66012;SDS011;52783;50.502;8.190;2023-08-30T09:07:43;5.80;;;4.63;;
66012;SDS011;52783;50.502;8.190;2023-08-30T09:10:10;7.82;;;4.28;;
66012;SDS011;52783;50.502;8.190;2023-08-30T09:12:35;8.80;;;5.00;;
66012;SDS011;52783;50.502;8.190;2023-08-30T09:15:01;6.47;;;4.53;;
66012;SDS011;52783;50.502;8.190;2023-08-30T09:17:37;6.32;;;4.70;;
66012;SDS011;52783;50.502;8.190;2023-08-30T09:20:09;6.82;;;4.53;;
66012;SDS011;52783;50.502;8.190;2023-08-30T09:22:37;5.32;;;4.25;;
66012;SDS011;52783;50.502;8.190;2023-08-30T09:25:10;5.65;;;4.68;;
66012;SDS011;52783;50.502;8.190;2023-08-30T09:27:47;9.27;;;4.35;;
66012;SDS011;52783;50.502;8.190;2023-08-30T09:30:12;5.63;;;4.47;;
66012;SDS011;52783;50.502;8.190;2023-08-30T09:32:41;5.28;;;4.20;;
66012;SDS011;52783;50.502;8.190;2023-08-30T09:35:07;6.65;;;4.80;;
66012;SDS011;52783;50.502;8.190;2023-08-30T09:37:33;9.05;;;4.57;;
66012;SDS011;52783;50.502;8.190;2023-08-30T09:39:59;10.02;;;4.65;;
66012;SDS011;52783;50.502;8.190;2023-08-30T09:42:25;11.38;;;5.07;;
66012;SDS011;52783;50.502;8.190;2023-08-30T09:44:51;8.10;;;4.88;;
66012;SDS011;52783;50.502;8.190;2023-08-30T09:47:17;7.05;;;4.10;;
66012;SDS011;52783;50.502;8.190;2023-08-30T09:49:43;6.38;;;4.20;;
66012;SDS011;52783;50.502;8.190;2023-08-30T09:52:14;10.45;;;4.40;;
66012;SDS011;52783;50.502;8.190;2023-08-30T09:54:40;6.28;;;4.75;;
66012;SDS011;52783;50.502;8.190;2023-08-30T09:57:08;9.85;;;3.95;;
66012;SDS011;52783;50.502;8.190;2023-08-30T09:59:35;6.55;;;4.35;;
66012;SDS011;52783;50.502;8.190;2023-08-30T10:02:02;5.10;;;3.95;;
66012;SDS011;52783;50.502;8.190;2023-08-30T10:04:27;4.28;;;3.53;;
66012;SDS011;52783;50.502;8.190;2023-08-30T10:06:55;5.72;;;3.33;;
66012;SDS011;52783;50.502;8.190;2023-08-30T10:09:22;4.72;;;3.72;;
66012;SDS011;52783;50.502;8.190;2023-08-30T10:11:49;5.07;;;3.47;;
66012;SDS011;52783;50.502;8.190;2023-08-30T10:14:15;4.85;;;3.20;;
66012;SDS011;52783;50.502;8.190;2023-08-30T10:16:42;4.20;;;3.53;;
66012;SDS011;52783;50.502;8.190;2023-08-30T10:19:10;7.15;;;3.65;;
66012;SDS011;52783;50.502;8.190;2023-08-30T10:21:40;10.65;;;3.45;;
66012;SDS011;52783;50.502;8.190;2023-08-30T10:24:08;6.93;;;3.20;;
66012;SDS011;52783;50.502;8.190;2023-08-30T10:26:37;8.65;;;2.90;;
66012;SDS011;52783;50.502;8.190;2023-08-30T10:29:04;3.13;;;2.60;;
66012;SDS011;52783;50.502;8.190;2023-08-30T10:31:31;5.35;;;2.80;;
66012;SDS011;52783;50.502;8.190;2023-08-30T10:33:56;3.58;;;2.80;;
66012;SDS011;52783;50.502;8.190;2023-08-30T10:36:26;4.25;;;3.00;;
66012;SDS011;52783;50.502;8.190;2023-08-30T10:38:52;7.05;;;3.17;;
66012;SDS011;52783;50.502;8.190;2023-08-30T10:41:23;3.65;;;2.70;;
66012;SDS011;52783;50.502;8.190;2023-08-30T10:43:50;5.38;;;2.80;;
66012;SDS011;52783;50.502;8.190;2023-08-30T10:46:31;3.95;;;2.75;;
66012;SDS011;52783;50.502;8.190;2023-08-30T10:49:08;10.10;;;3.10;;
66012;SDS011;52783;50.502;8.190;2023-08-30T10:51:37;6.43;;;2.92;;
66012;SDS011;52783;50.502;8.190;2023-08-30T10:54:10;4.20;;;2.78;;
66012;SDS011;52783;50.502;8.190;2023-08-30T10:56:54;3.67;;;2.90;;
66012;SDS011;52783;50.502;8.190;2023-08-30T10:59:22;3.05;;;2.50;;
66012;SDS011;52783;50.502;8.190;2023-08-30T11:01:48;3.50;;;2.58;;
66012;SDS011;52783;50.502;8.190;2023-08-30T11:04:16;4.30;;;3.10;;
66012;SDS011;52783;50.502;8.190;2023-08-30T11:06:44;4.45;;;2.80;;
66012;SDS011;52783;50.502;8.190;2023-08-30T11:09:14;6.80;;;2.90;;
66012;SDS011;52783;50.502;8.190;2023-08-30T11:11:43;4.30;;;2.58;;
66012;SDS011;52783;50.502;8.190;2023-08-30T11:14:09;6.05;;;2.85;;
66012;SDS011;52783;50.502;8.190;2023-08-30T11:16:35;6.03;;;2.50;;
66012;SDS011;52783;50.502;8.190;2023-08-30T11:19:01;2.42;;;2.17;;
66012;SDS011;52783;50.502;8.190;2023-08-30T11:21:29;4.68;;;2.53;;
66012;SDS011;52783;50.502;8.190;2023-08-30T11:23:56;3.38;;;2.33;;
66012;SDS011;52783;50.502;8.190;2023-08-30T11:26:22;3.92;;;2.65;;
66012;SDS011;52783;50.502;8.190;2023-08-30T11:29:06;3.35;;;2.35;;
66012;SDS011;52783;50.502;8.190;2023-08-30T11:31:32;4.30;;;2.55;;
66012;SDS011;52783;50.502;8.190;2023-08-30T11:33:59;4.43;;;2.70;;
66012;SDS011;52783;50.502;8.190;2023-08-30T11:36:26;7.90;;;2.65;;
66012;SDS011;52783;50.502;8.190;2023-08-30T11:38:53;5.20;;;2.75;;
66012;SDS011;52783;50.502;8.190;2023-08-30T11:41:19;5.70;;;2.55;;
66012;SDS011;52783;50.502;8.190;2023-08-30T11:43:46;7.00;;;2.53;;
66012;SDS011;52783;50.502;8.190;2023-08-30T11:46:12;4.88;;;2.67;;
66012;SDS011;52783;50.502;8.190;2023-08-30T11:48:38;3.13;;;2.60;;
66012;SDS011;52783;50.502;8.190;2023-08-30T11:51:05;7.57;;;3.03;;
66012;SDS011;52783;50.502;8.190;2023-08-30T11:53:32;3.30;;;2.20;;
66012;SDS011;52783;50.502;8.190;2023-08-30T11:55:58;5.00;;;2.47;;
66012;SDS011;52783;50.502;8.190;2023-08-30T11:58:23;4.03;;;2.30;;
66012;SDS011;52783;50.502;8.190;2023-08-30T12:00:49;3.92;;;2.47;;
66012;SDS011;52783;50.502;8.190;2023-08-30T12:03:18;3.95;;;2.60;;
66012;SDS011;52783;50.502;8.190;2023-08-30T12:05:47;3.70;;;2.50;;
66012;SDS011;52783;50.502;8.190;2023-08-30T12:08:17;5.20;;;2.70;;
66012;SDS011;52783;50.502;8.190;2023-08-30T12:10:44;3.20;;;2.47;;
66012;SDS011;52783;50.502;8.190;2023-08-30T12:13:19;3.13;;;2.47;;
66012;SDS011;52783;50.502;8.190;2023-08-30T12:15:45;6.78;;;2.80;;
66012;SDS011;52783;50.502;8.190;2023-08-30T12:18:11;5.35;;;2.35;;
66012;SDS011;52783;50.502;8.190;2023-08-30T12:20:36;7.28;;;2.40;;
66012;SDS011;52783;50.502;8.190;2023-08-30T12:23:02;3.92;;;2.58;;
66012;SDS011;52783;50.502;8.190;2023-08-30T12:25:28;4.22;;;2.35;;
66012;SDS011;52783;50.502;8.190;2023-08-30T12:27:55;5.13;;;2.60;;
66012;SDS011;52783;50.502;8.190;2023-08-30T12:30:21;10.25;;;2.65;;
66012;SDS011;52783;50.502;8.190;2023-08-30T12:32:48;6.35;;;2.90;;
66012;SDS011;52783;50.502;8.190;2023-08-30T12:35:14;4.72;;;2.90;;
66012;SDS011;52783;50.502;8.190;2023-08-30T12:37:40;2.85;;;2.25;;
66012;SDS011;52783;50.502;8.190;2023-08-30T12:40:05;3.03;;;2.63;;
66012;SDS011;52783;50.502;8.190;2023-08-30T12:42:32;11.68;;;3.40;;
66012;SDS011;52783;50.502;8.190;2023-08-30T12:44:58;3.92;;;2.70;;
66012;SDS011;52783;50.502;8.190;2023-08-30T12:47:23;5.90;;;2.92;;
66012;SDS011;52783;50.502;8.190;2023-08-30T12:49:49;6.88;;;2.80;;
66012;SDS011;52783;50.502;8.190;2023-08-30T12:52:14;5.43;;;3.00;;
66012;SDS011;52783;50.502;8.190;2023-08-30T12:54:41;5.07;;;2.70;;
66012;SDS011;52783;50.502;8.190;2023-08-30T12:57:06;5.47;;;3.03;;
66012;SDS011;52783;50.502;8.190;2023-08-30T12:59:32;6.20;;;2.70;;
66012;SDS011;52783;50.502;8.190;2023-08-30T13:01:57;5.93;;;2.83;;
66012;SDS011;52783;50.502;8.190;2023-08-30T13:04:23;4.82;;;2.78;;
66012;SDS011;52783;50.502;8.190;2023-08-30T13:06:48;3.25;;;2.80;;
66012;SDS011;52783;50.502;8.190;2023-08-30T13:09:14;5.63;;;2.97;;
66012;SDS011;52783;50.502;8.190;2023-08-30T13:11:40;8.50;;;2.80;;
66012;SDS011;52783;50.502;8.190;2023-08-30T13:14:05;6.05;;;2.88;;
66012;SDS011;52783;50.502;8.190;2023-08-30T13:16:31;5.88;;;2.83;;
66012;SDS011;52783;50.502;8.190;2023-08-30T13:18:57;5.70;;;2.80;;
66012;SDS011;52783;50.502;8.190;2023-08-30T13:21:22;4.72;;;2.72;;
66012;SDS011;52783;50.502;8.190;2023-08-30T13:23:48;4.20;;;2.60;;
66012;SDS011;52783;50.502;8.190;2023-08-30T13:26:13;9.13;;;2.90;;
66012;SDS011;52783;50.502;8.190;2023-08-30T13:28:39;4.85;;;2.85;;
66012;SDS011;52783;50.502;8.190;2023-08-30T13:31:06;5.10;;;2.88;;
66012;SDS011;52783;50.502;8.190;2023-08-30T13:33:33;7.25;;;2.88;;
66012;SDS011;52783;50.502;8.190;2023-08-30T13:35:58;4.25;;;2.65;;
66012;SDS011;52783;50.502;8.190;2023-08-30T13:38:24;5.88;;;2.78;;
66012;SDS011;52783;50.502;8.190;2023-08-30T13:40:50;5.05;;;2.75;;
66012;SDS011;52783;50.502;8.190;2023-08-30T13:43:15;4.13;;;2.60;;
66012;SDS011;52783;50.502;8.190;2023-08-30T13:45:42;6.38;;;2.97;;
66012;SDS011;52783;50.502;8.190;2023-08-30T13:48:11;7.60;;;3.08;;
66012;SDS011;52783;50.502;8.190;2023-08-30T13:50:40;9.98;;;3.05;;
66012;SDS011;52783;50.502;8.190;2023-08-30T13:53:06;5.45;;;2.80;;
66012;SDS011;52783;50.502;8.190;2023-08-30T13:55:32;4.82;;;3.00;;
66012;SDS011;52783;50.502;8.190;2023-08-30T13:57:58;4.47;;;2.90;;
66012;SDS011;52783;50.502;8.190;2023-08-30T14:00:23;3.92;;;3.03;;
66012;SDS011;52783;50.502;8.190;2023-08-30T14:02:49;3.70;;;2.58;;
66012;SDS011;52783;50.502;8.190;2023-08-30T14:05:16;5.88;;;2.35;;
66012;SDS011;52783;50.502;8.190;2023-08-30T14:07:41;3.65;;;2.70;;
66012;SDS011;52783;50.502;8.190;2023-08-30T14:10:07;7.68;;;2.90;;
66012;SDS011;52783;50.502;8.190;2023-08-30T14:12:33;5.47;;;2.85;;
66012;SDS011;52783;50.502;8.190;2023-08-30T14:14:59;5.00;;;3.00;;
66012;SDS011;52783;50.502;8.190;2023-08-30T14:17:24;3.17;;;2.45;;
66012;SDS011;52783;50.502;8.190;2023-08-30T14:19:50;4.78;;;3.08;;
66012;SDS011;52783;50.502;8.190;2023-08-30T14:22:16;5.88;;;2.92;;
66012;SDS011;52783;50.502;8.190;2023-08-30T14:24:42;5.45;;;2.63;;
66012;SDS011;52783;50.502;8.190;2023-08-30T14:27:07;6.60;;;2.45;;
66012;SDS011;52783;50.502;8.190;2023-08-30T14:29:33;4.22;;;2.80;;
66012;SDS011;52783;50.502;8.190;2023-08-30T14:31:58;8.48;;;2.75;;
66012;SDS011;52783;50.502;8.190;2023-08-30T14:34:24;10.05;;;2.45;;
66012;SDS011;52783;50.502;8.190;2023-08-30T14:36:49;7.18;;;3.00;;
66012;SDS011;52783;50.502;8.190;2023-08-30T14:39:15;6.00;;;2.80;;
66012;SDS011;52783;50.502;8.190;2023-08-30T14:41:40;3.00;;;2.47;;